ADDS METAR Data INFO
IDs: Format: Raw Decoded Include TAF

Data at: 0210 UTC 19 Jul 2018

KBNA 190153Z 03006KT 10SM BKN250 27/17 A2997 RMK AO2 SLP141 T02720172
KBNA 190053Z 03008KT 10SM BKN250 29/17 A2995 RMK AO2 SLP135 T02890172
KBNA 182353Z 03007KT 10SM FEW050 BKN250 30/17 A2995 RMK AO2 SLP135 T03000172 10333 20300 58006
KBNA 182253Z 02010KT 10SM FEW055 BKN250 31/17 A2997 RMK AO2 SLP139 T03060172
KBNA 182153Z 02009KT 10SM FEW055 BKN250 32/16 A2997 RMK AO2 SLP142 T03220161
KBNA 182053Z 02005KT 10SM FEW055 BKN250 33/16 A2997 RMK AO2 SLP141 T03280161 58019
KBNA 181953Z VRB05KT 10SM FEW060 BKN250 33/17 A3000 RMK AO2 SLP150 T03280167
KBNA 181853Z VRB05KT 10SM FEW055 SCT210 SCT250 33/18 A3001 RMK AO2 SLP155 T03280178
KBNA 181753Z 02004KT 10SM FEW055 SCT210 SCT250 32/17 A3003 RMK AO2 SLP159 T03170172 10317 20244 58008
KBNA 181653Z VRB06KT 10SM SCT210 BKN250 31/18 A3004 RMK AO2 SLP163 T03060183
KBNA 181553Z 09005KT 10SM BKN220 29/18 A3004 RMK AO2 SLP166 T02940183
KBNA 181453Z 07008KT 10SM BKN210 28/18 A3005 RMK AO2 SLP168 T02830178 50006
KBNA 181353Z 04005KT 10SM SCT200 27/18 A3006 RMK AO2 SLP171 T02720183 $
KBNA 181253Z 05007KT 10SM SCT220 25/18 A3005 RMK AO2 SLP168 T02500178
KBNA 181153Z 00000KT 10SM BKN200 24/18 A3003 RMK AO2 SLP162 70001 T02390178 10256 20233 53010
KBNA 181053Z 36003KT 10SM BKN150 23/18 A3002 RMK AO2 SLP158 T02330183
KBNA 180953Z 01004KT 10SM BKN200 24/19 A3000 RMK AO2 SLP151 T02390189
KBNA 180853Z 01004KT 10SM SCT250 24/19 A3000 RMK AO2 SLP152 T02390194 56005
KBNA 180753Z 02004KT 10SM SCT250 24/19 A3000 RMK AO2 SLP152 T02440194
KBNA 180653Z 01006KT 10SM BKN250 25/20 A3000 RMK AO2 SLP152 T02500200
KBNA 180553Z 02006KT 10SM SCT250 26/20 A3002 RMK AO2 SLP156 T02560200 10322 20256 403440244 50003
KBNA 180453Z 05003KT 10SM SCT250 27/21 A3003 RMK AO2 SLP159 T02670211
KBNA 180353Z 02006KT 10SM FEW250 27/22 A3002 RMK AO2 SLP156 T02720222
KBNA 180253Z 01008KT 10SM FEW045 SCT250 28/22 A3001 RMK AO2 SLP153 T02830222 51019
KBNA 180153Z 01009KT 10SM FEW045 SCT250 29/23 A2999 RMK AO2 SLP148 T02940228
KBNA 180053Z 35007KT 10SM SCT045TCU BKN250 31/22 A2998 RMK AO2 SLP143 TCU OHD T03060222
KBNA 172353Z 36008KT 10SM FEW047 SCT250 32/22 A2995 RMK AO2 SLP134 CB DSNT S 60001 T03220217 10344 20294 55002
KBNA 172253Z 35009KT 10SM SCT045 SCT250 32/21 A2994 RMK AO2 SLP130 T03220211
KBNA 172153Z 36008KT 10SM SCT045 BKN250 34/22 A2994 RMK AO2 SLP131 T03440217
KBNA 172053Z 28006KT 10SM SCT045TCU SCT150 31/21 A2996 RMK AO2 SLP136 TCU N AND DSNT S 60001 T03110206 56013
KBNA 171953Z 34008KT 10SM BKN045 BKN080 32/22 A2997 RMK AO2 LTG DSNT SE SLP139 CB DSNT SE TCU DSNT W T03220222
KBNA 171853Z VRB04KT 10SM FEW039TCU BKN110 32/22 A2998 RMK AO2 RAB38E48 SLP144 TCU ALQDS CB DSNT NE SE AND SW P0001 T03170217
KBNA 171753Z 35003KT 10SM BKN042TCU BKN060 BKN120 33/22 A3000 RMK AO2 LTG DSNT SE SLP149 TCU ALQDS T03280217 10333 20250 58008
KBNA 171653Z VRB03KT 10SM BKN034 BKN045 32/22 A3001 RMK AO2 SLP153 T03220222
KBNA 171553Z VRB03KT 10SM FEW026 FEW120 SCT250 32/22 A3001 RMK AO2 SLP155 T03170222
KBNA 171453Z 00000KT 10SM FEW030 SCT110 SCT250 30/23 A3002 RMK AO2 SLP158 T03000228 50004